This is the latest recevied weather packets stored in our database for station/object KF0FSA. If no packets are shown the sender has not sent any weather packets the latest 10 day(s).
| Time | Temp. | Humidity | Pressure | Rain* | Wind** | Luminosity | Snow |
|---|---|---|---|---|---|---|---|
| 1777296313 | 8.89° C | 99% | 948.1 hPa | 1.52 mm | - | 37 W/m² | - |
| 1777296012 | 8.89° C | 99% | 948.1 hPa | 2.03 mm | - | 28 W/m² | - |
| 1777295825 | 8.89° C | 99% | 948.1 hPa | 2.29 mm | - | 23 W/m² | - |
| 1777295398 | 8.89° C | 99% | 948.1 hPa | 2.79 mm | - | 22 W/m² | - |
| 1777295098 | 8.89° C | 99% | 948.2 hPa | 3.05 mm | - | 13 W/m² | - |
| 1777294922 | 8.89° C | 99% | 948.3 hPa | 3.3 mm | - | 10 W/m² | - |
| 1777294498 | 8.89° C | 99% | 948.2 hPa | 5.08 mm | - | 10 W/m² | - |
| 1777294198 | 8.89° C | 99% | 948.2 hPa | 6.1 mm | - | 9 W/m² | - |
| 1777293898 | 8.89° C | 99% | 948.1 hPa | 7.62 mm | - | 9 W/m² | - |
| 1777293588 | 9.44° C | 99% | 947.9 hPa | 8.89 mm | - | 10 W/m² | - |
| 1777293289 | 9.44° C | 99% | 947.7 hPa | 10.16 mm | - | 11 W/m² | - |
| 1777293111 | 9.44° C | 99% | 947.6 hPa | 10.67 mm | - | 9 W/m² | - |
| 1777292684 | 9.44° C | 99% | 947.5 hPa | 10.41 mm | - | 5 W/m² | - |
| 1777292383 | 9.44° C | 99% | 947.5 hPa | 9.91 mm | - | 3 W/m² | - |
| 1777292208 | 9.44° C | 99% | 947.5 hPa | 9.4 mm | - | 2 W/m² | - |
| 1777291783 | 9.44° C | 99% | 947.6 hPa | 9.14 mm | - | 2 W/m² | - |
| 1777291483 | 9.44° C | 99% | 947.6 hPa | 8.64 mm | - | 0 W/m² | - |
| 1777291184 | 10° C | 99% | 947.6 hPa | 8.38 mm | - | 0 W/m² | - |
| 1777290883 | 10° C | 99% | 947.7 hPa | 6.6 mm | - | 0 W/m² | - |
| 1777290584 | 10° C | 99% | 948.1 hPa | 5.33 mm | - | 0 W/m² | - |
| 1777290283 | 10° C | 99% | 948.6 hPa | 4.06 mm | - | 0 W/m² | - |
| 1777289983 | 10° C | 99% | 949.1 hPa | 2.79 mm | - | 0 W/m² | - |
| 1777289684 | 10° C | 99% | 949 hPa | 1.02 mm | - | 0 W/m² | - |
| 1777289383 | 10° C | 99% | 948.8 hPa | 0.25 mm | - | 0 W/m² | - |
| 1777289084 | 10° C | 99% | 948.5 hPa | 0 mm | - | 0 W/m² | - |
* Rain latest hour (hover to see other rain measurements)
** Current wind speed in m/s (hover to see current wind gust speed)